Time,TemperatureF,DewpointF,PressureIn,WindDirection,WindDirectionDegrees,WindSpeedMPH,WindSpeedGustMPH,Humidity,HourlyPrecipIn,Conditions,Clouds,dailyrainin,SoftwareType,DateUTC
2013-02-03 00:12:00,39.4,36.0,30.34,SW,218,0.0,0.0,87,0.00,,,0.00,weatherlink.com 1.10,2013-02-03 08:12:00,
2013-02-03 00:27:00,38.8,36.0,30.34,SW,218,0.0,0.0,88,0.00,,,0.00,weatherlink.com 1.10,2013-02-03 08:27:00,
2013-02-03 00:42:00,39.5,36.0,30.33,SW,218,0.0,0.0,87,0.00,,,0.00,weatherlink.com 1.10,2013-02-03 08:42:00,
2013-02-03 00:58:00,39.3,35.0,30.33,SW,218,0.0,0.0,85,0.00,,,0.00,weatherlink.com 1.10,2013-02-03 08:58:00,
2013-02-03 01:12:00,39.2,35.0,30.32,SW,218,0.0,0.0,86,0.00,,,0.00,weatherlink.com 1.10,2013-02-03 09:12:00,
2013-02-03 01:27:00,38.8,35.0,30.32,SW,219,0.0,1.0,87,0.00,,,0.00,weatherlink.com 1.10,2013-02-03 09:27:00,
2013-02-03 01:42:00,38.7,35.0,30.33,SW,218,0.0,0.0,85,0.00,,,0.00,weatherlink.com 1.10,2013-02-03 09:42:00,
2013-02-03 01:57:00,38.3,35.0,30.33,SW,218,0.0,0.0,87,0.00,,,0.00,weatherlink.com 1.10,2013-02-03 09:57:00,
2013-02-03 02:13:00,37.9,34.0,30.33,SW,218,0.0,0.0,87,0.00,,,0.00,weatherlink.com 1.10,2013-02-03 10:13:00,
2013-02-03 02:28:00,37.7,34.0,30.33,SW,218,0.0,0.0,85,0.00,,,0.00,weatherlink.com 1.10,2013-02-03 10:28:00,
2013-02-03 02:43:00,37.7,34.0,30.33,SW,219,0.0,0.0,86,0.00,,,0.00,weatherlink.com 1.10,2013-02-03 10:43:00,
2013-02-03 02:58:00,37.7,33.0,30.33,SW,218,0.0,0.0,82,0.00,,,0.00,weatherlink.com 1.10,2013-02-03 10:58:00,
2013-02-03 03:13:00,37.8,33.0,30.33,West,271,0.0,0.0,84,0.00,,,0.00,weatherlink.com 1.10,2013-02-03 11:13:00,
2013-02-03 03:28:00,37.4,33.0,30.33,West,271,0.0,0.0,84,0.00,,,0.00,weatherlink.com 1.10,2013-02-03 11:28:00,
2013-02-03 03:43:00,36.7,33.0,30.33,West,271,0.0,0.0,86,0.00,,,0.00,weatherlink.com 1.10,2013-02-03 11:43:00,
2013-02-03 03:58:00,36.4,33.0,30.33,West,271,0.0,0.0,87,0.00,,,0.00,weatherlink.com 1.10,2013-02-03 11:58:00,
2013-02-03 04:13:00,36.3,33.0,30.32,West,273,0.0,0.0,86,0.00,,,0.00,weatherlink.com 1.10,2013-02-03 12:13:00,
2013-02-03 04:28:00,35.7,32.0,30.32,West,271,0.0,0.0,85,0.00,,,0.00,weatherlink.com 1.10,2013-02-03 12:28:00,
2013-02-03 04:43:00,35.7,32.0,30.31,West,271,0.0,0.0,86,0.00,,,0.00,weatherlink.com 1.10,2013-02-03 12:43:00,
2013-02-03 04:58:00,36.0,32.0,30.32,West,271,0.0,0.0,84,0.00,,,0.00,weatherlink.com 1.10,2013-02-03 12:58:00,
2013-02-03 05:13:00,36.0,32.0,30.32,West,271,0.0,0.0,85,0.00,,,0.00,weatherlink.com 1.10,2013-02-03 13:13:00,
2013-02-03 05:28:00,35.4,31.0,30.32,West,271,0.0,0.0,85,0.00,,,0.00,weatherlink.com 1.10,2013-02-03 13:28:00,
2013-02-03 05:43:00,35.5,31.0,30.32,West,271,0.0,0.0,85,0.00,,,0.00,weatherlink.com 1.10,2013-02-03 13:43:00,
2013-02-03 05:58:00,35.3,31.0,30.33,West,271,0.0,0.0,85,0.00,,,0.00,weatherlink.com 1.10,2013-02-03 13:58:00,
2013-02-03 06:13:00,34.7,31.0,30.34,West,271,0.0,0.0,86,0.00,,,0.00,weatherlink.com 1.10,2013-02-03 14:13:00,
2013-02-03 06:28:00,34.9,31.0,30.34,West,271,0.0,0.0,86,0.00,,,0.00,weatherlink.com 1.10,2013-02-03 14:28:00,
2013-02-03 06:43:00,34.5,31.0,30.34,West,271,0.0,0.0,87,0.00,,,0.00,weatherlink.com 1.10,2013-02-03 14:43:00,
2013-02-03 06:58:00,34.2,31.0,30.34,West,271,0.0,0.0,87,0.00,,,0.00,weatherlink.com 1.10,2013-02-03 14:58:00,
2013-02-03 07:13:00,34.5,31.0,30.34,West,271,0.0,0.0,86,0.00,,,0.00,weatherlink.com 1.10,2013-02-03 15:13:00,
2013-02-03 07:28:00,34.7,31.0,30.34,West,271,0.0,0.0,87,0.00,,,0.00,weatherlink.com 1.10,2013-02-03 15:28:00,
2013-02-03 07:43:00,34.5,31.0,30.34,West,271,0.0,0.0,87,0.00,,,0.00,weatherlink.com 1.10,2013-02-03 15:43:00,
2013-02-03 07:58:00,35.8,31.0,30.34,West,271,0.0,0.0,84,0.00,,,0.00,weatherlink.com 1.10,2013-02-03 15:58:00,
2013-02-03 08:13:00,37.9,33.0,30.34,West,271,0.0,0.0,81,0.00,,,0.00,weatherlink.com 1.10,2013-02-03 16:13:00,
2013-02-03 08:28:00,37.7,33.0,30.33,West,271,0.0,0.0,83,0.00,,,0.00,weatherlink.com 1.10,2013-02-03 16:28:00,
2013-02-03 08:43:00,38.5,34.0,30.32,West,271,0.0,0.0,83,0.00,,,0.00,weatherlink.com 1.10,2013-02-03 16:43:00,
2013-02-03 09:13:00,43.6,36.0,30.32,West,271,0.0,0.0,74,0.00,,,0.00,weatherlink.com 1.10,2013-02-03 17:13:00,
2013-02-03 09:28:00,45.8,36.0,30.33,West,271,0.0,0.0,68,0.00,,,0.00,weatherlink.com 1.10,2013-02-03 17:28:00,
2013-02-03 09:43:00,48.3,36.0,30.33,SE,124,0.0,1.0,63,0.00,,,0.00,weatherlink.com 1.10,2013-02-03 17:43:00,
2013-02-03 09:59:00,50.5,36.0,30.33,ESE,117,0.0,1.0,58,0.00,,,0.00,weatherlink.com 1.10,2013-02-03 17:59:00,
2013-02-03 10:14:00,51.5,34.0,30.34,East,92,0.0,3.0,52,0.00,,,0.00,weatherlink.com 1.10,2013-02-03 18:14:00,
2013-02-03 10:29:00,52.7,33.0,30.35,SE,136,1.0,3.0,48,0.00,,,0.00,weatherlink.com 1.10,2013-02-03 18:29:00,
2013-02-03 10:44:00,54.2,35.0,30.35,WNW,297,2.0,3.0,48,0.00,,,0.00,weatherlink.com 1.10,2013-02-03 18:44:00,
2013-02-03 10:59:00,54.7,36.0,30.34,East,91,3.0,4.0,50,0.00,,,0.00,weatherlink.com 1.10,2013-02-03 18:59:00,
2013-02-03 11:14:00,55.5,37.0,30.34,ESE,107,0.0,2.0,51,0.00,,,0.00,weatherlink.com 1.10,2013-02-03 19:14:00,
2013-02-03 11:29:00,56.4,38.0,30.33,ESE,106,0.0,3.0,51,0.00,,,0.00,weatherlink.com 1.10,2013-02-03 19:29:00,
2013-02-03 11:44:00,58.4,38.0,30.32,WNW,301,0.0,2.0,47,0.00,,,0.00,weatherlink.com 1.10,2013-02-03 19:44:00,
2013-02-03 11:59:00,58.4,39.0,30.31,East,87,0.0,2.0,49,0.00,,,0.00,weatherlink.com 1.10,2013-02-03 19:59:00,
2013-02-03 12:14:00,59.1,40.0,30.30,East,86,2.0,3.0,49,0.00,,,0.00,weatherlink.com 1.10,2013-02-03 20:14:00,
2013-02-03 12:29:00,59.2,41.0,30.28,West,259,1.0,4.0,51,0.00,,,0.00,weatherlink.com 1.10,2013-02-03 20:29:00,
2013-02-03 12:44:00,60.5,41.0,30.27,NW,309,1.0,2.0,49,0.00,,,0.00,weatherlink.com 1.10,2013-02-03 20:44:00,
2013-02-03 12:59:00,61.6,42.0,30.27,East,82,2.0,3.0,48,0.00,,,0.00,weatherlink.com 1.10,2013-02-03 20:59:00,
2013-02-03 13:14:00,61.6,42.0,30.26,East,84,0.0,4.0,49,0.00,,,0.00,weatherlink.com 1.10,2013-02-03 21:14:00,
2013-02-03 13:29:00,62.5,43.0,30.26,East,100,2.0,3.0,50,0.00,,,0.00,weatherlink.com 1.10,2013-02-03 21:29:00,
2013-02-03 13:44:00,62.2,43.0,30.26,ESE,117,1.0,4.0,50,0.00,,,0.00,weatherlink.com 1.10,2013-02-03 21:44:00,
2013-02-03 13:59:00,62.1,41.0,30.26,East,85,1.0,5.0,46,0.00,,,0.00,weatherlink.com 1.10,2013-02-03 21:59:00,
2013-02-03 14:14:00,63.0,38.0,30.26,West,266,3.0,5.0,40,0.00,,,0.00,weatherlink.com 1.10,2013-02-03 22:14:00,
2013-02-03 14:29:00,62.5,39.0,30.26,ESE,121,1.0,5.0,42,0.00,,,0.00,weatherlink.com 1.10,2013-02-03 22:29:00,
2013-02-03 14:44:00,64.2,40.0,30.25,NW,309,0.0,3.0,41,0.00,,,0.00,weatherlink.com 1.10,2013-02-03 22:44:00,
2013-02-03 15:00:00,64.2,40.0,30.25,NW,311,1.0,4.0,41,0.00,,,0.00,weatherlink.com 1.10,2013-02-03 23:00:00,
2013-02-03 15:15:00,64.6,41.0,30.25,East,96,2.0,3.0,42,0.00,,,0.00,weatherlink.com 1.10,2013-02-03 23:15:00,
2013-02-03 15:29:00,63.6,41.0,30.26,WNW,295,2.0,4.0,44,0.00,,,0.00,weatherlink.com 1.10,2013-02-03 23:29:00,
2013-02-03 15:44:00,62.8,41.0,30.25,East,96,3.0,6.0,45,0.00,,,0.00,weatherlink.com 1.10,2013-02-03 23:44:00,
2013-02-03 15:59:00,62.3,42.0,30.25,NW,309,0.0,6.0,48,0.00,,,0.00,weatherlink.com 1.10,2013-02-03 23:59:00,
2013-02-03 16:15:00,61.4,42.0,30.25,NE,51,1.0,3.0,50,0.00,,,0.00,weatherlink.com 1.10,2013-02-04 00:15:00,
2013-02-03 16:30:00,59.2,43.0,30.25,ESE,119,0.0,3.0,55,0.00,,,0.00,weatherlink.com 1.10,2013-02-04 00:30:00,
2013-02-03 16:45:00,59.4,43.0,30.24,WNW,291,0.0,2.0,56,0.00,,,0.00,weatherlink.com 1.10,2013-02-04 00:45:00,
2013-02-03 17:00:00,57.2,43.0,30.24,NW,309,0.0,2.0,60,0.00,,,0.00,weatherlink.com 1.10,2013-02-04 01:00:00,
2013-02-03 17:15:00,55.4,43.0,30.24,WNW,295,0.0,1.0,64,0.00,,,0.00,weatherlink.com 1.10,2013-02-04 01:15:00,
2013-02-03 17:30:00,52.8,43.0,30.25,WNW,283,0.0,0.0,70,0.00,,,0.00,weatherlink.com 1.10,2013-02-04 01:30:00,
2013-02-03 17:45:00,51.0,43.0,30.25,West,273,0.0,1.0,74,0.00,,,0.00,weatherlink.com 1.10,2013-02-04 01:45:00,
2013-02-03 18:00:00,49.5,43.0,30.25,West,273,1.0,1.0,77,0.00,,,0.00,weatherlink.com 1.10,2013-02-04 02:00:00,
2013-02-03 18:15:00,48.1,42.0,30.25,West,273,0.0,0.0,79,0.00,,,0.00,weatherlink.com 1.10,2013-02-04 02:15:00,
2013-02-03 18:30:00,47.1,42.0,30.25,West,273,0.0,0.0,81,0.00,,,0.00,weatherlink.com 1.10,2013-02-04 02:30:00,
2013-02-03 18:45:00,46.2,41.0,30.26,West,273,0.0,0.0,83,0.00,,,0.00,weatherlink.com 1.10,2013-02-04 02:45:00,
2013-02-03 19:04:00,45.3,41.0,30.26,West,273,0.0,0.0,85,0.00,,,0.00,weatherlink.com 1.10,2013-02-04 03:04:00,
2013-02-03 19:15:00,44.5,40.0,30.27,West,274,0.0,0.0,85,0.00,,,0.00,weatherlink.com 1.10,2013-02-04 03:15:00,
2013-02-03 19:30:00,43.9,41.0,30.27,West,273,0.0,0.0,88,0.00,,,0.00,weatherlink.com 1.10,2013-02-04 03:30:00,
2013-02-03 19:45:00,43.4,40.0,30.26,West,273,0.0,0.0,88,0.00,,,0.00,weatherlink.com 1.10,2013-02-04 03:45:00,
2013-02-03 20:00:00,42.9,40.0,30.26,West,273,0.0,0.0,89,0.00,,,0.00,weatherlink.com 1.10,2013-02-04 04:00:00,
2013-02-03 20:15:00,42.4,40.0,30.27,West,273,0.0,0.0,90,0.00,,,0.00,weatherlink.com 1.10,2013-02-04 04:15:00,
2013-02-03 20:34:00,42.2,40.0,30.27,West,273,0.0,0.0,90,0.00,,,0.00,weatherlink.com 1.10,2013-02-04 04:34:00,
2013-02-03 20:45:00,42.1,40.0,30.26,West,273,0.0,0.0,91,0.00,,,0.00,weatherlink.com 1.10,2013-02-04 04:45:00,
2013-02-03 21:00:00,41.5,39.0,30.26,West,273,0.0,0.0,91,0.00,,,0.00,weatherlink.com 1.10,2013-02-04 05:00:00,
2013-02-03 21:15:00,41.5,40.0,30.27,West,273,0.0,0.0,93,0.00,,,0.00,weatherlink.com 1.10,2013-02-04 05:15:00,
2013-02-03 21:30:00,41.5,40.0,30.27,West,273,0.0,0.0,93,0.00,,,0.00,weatherlink.com 1.10,2013-02-04 05:30:00,
2013-02-03 21:45:00,41.2,39.0,30.27,West,273,0.0,0.0,93,0.00,,,0.00,weatherlink.com 1.10,2013-02-04 05:45:00,
2013-02-03 22:00:00,40.9,39.0,30.27,West,273,0.0,0.0,92,0.00,,,0.00,weatherlink.com 1.10,2013-02-04 06:00:00,
2013-02-03 22:15:00,40.6,39.0,30.26,West,272,0.0,0.0,92,0.00,,,0.00,weatherlink.com 1.10,2013-02-04 06:15:00,
2013-02-03 22:31:00,40.2,38.0,30.26,West,272,0.0,0.0,93,0.00,,,0.00,weatherlink.com 1.10,2013-02-04 06:31:00,
2013-02-03 22:45:00,39.8,38.0,30.27,West,273,0.0,1.0,93,0.00,,,0.00,weatherlink.com 1.10,2013-02-04 06:45:00,
2013-02-03 23:00:00,40.1,38.0,30.27,WSW,241,0.0,1.0,93,0.00,,,0.00,weatherlink.com 1.10,2013-02-04 07:00:00,
2013-02-03 23:15:00,39.9,38.0,30.27,WNW,284,0.0,1.0,91,0.00,,,0.00,weatherlink.com 1.10,2013-02-04 07:15:00,
2013-02-03 23:30:00,39.6,37.0,30.28,WNW,284,0.0,0.0,91,0.00,,,0.00,weatherlink.com 1.10,2013-02-04 07:30:00,
2013-02-03 23:45:00,39.4,37.0,30.28,ESE,103,0.0,0.0,92,0.00,,,0.00,weatherlink.com 1.10,2013-02-04 07:45:00,